Date,TemperatureHighF,TemperatureAvgF,TemperatureLowF,DewpointHighF,DewpointAvgF,DewpointLowF,HumidityHigh,HumidityAvg,HumidityLow,PressureMaxIn,PressureMinIn,WindSpeedMaxMPH,WindSpeedAvgMPH,GustSpeedMaxMPH,PrecipitationSumIn
2013-11-1,65.5,61.4,53.8,62.0,56.9,51.9,100,86,66,29.83,29.56,19,2,19,0.04
2013-11-2,68.9,55.0,47.5,54.2,46.5,40.0,100,75,54,29.77,29.62,12,0,12,0.00
2013-11-3,52.5,43.8,33.1,47.3,32.6,19.0,95,65,53,30.42,29.77,12,2,12,0.00
2013-11-4,48.4,35.1,27.9,31.3,21.5,15.9,65,58,52,30.68,30.45,12,1,12,0.00
2013-11-5,56.7,42.5,31.8,42.6,31.6,22.6,77,66,57,30.68,30.51,12,1,12,0.00
2013-11-6,63.3,50.3,37.2,54.4,42.7,32.6,96,76,58,30.54,30.09,17,1,17,0.00
2013-11-7,63.7,53.3,37.9,61.3,50.0,30.7,100,89,73,30.09,29.74,12,0,12,0.24
2013-11-8,56.7,40.8,33.1,40.5,30.5,24.5,90,67,52,30.18,29.89,17,1,17,0.00
2013-11-9,49.3,39.0,26.2,35.0,29.3,22.9,90,69,55,30.27,30.03,12,0,12,0.00
2013-11-10,63.7,47.8,40.8,47.9,36.4,31.2,71,65,53,30.03,29.77,17,1,17,0.00
2013-11-11,56.3,46.3,33.8,39.1,32.7,24.8,71,59,52,30.18,29.95,12,1,12,0.00
2013-11-12,50.0,35.8,25.5,36.7,25.1,15.3,83,65,59,30.24,29.92,16,3,16,0.00
2013-11-13,42.1,29.2,22.8,26.0,16.9,12.7,66,60,53,30.33,30.24,13,2,13,0.00
2013-11-14,53.1,38.7,25.9,35.4,24.8,15.8,66,58,51,30.24,30.12,12,1,12,0.00
2013-11-15,59.7,41.9,31.8,41.8,30.6,20.0,92,65,50,30.24,30.18,11,0,11,0.00
2013-11-16,64.9,44.3,34.7,47.9,36.4,30.7,94,75,51,30.33,30.24,11,0,11,0.00
2013-11-17,61.3,51.1,37.0,58.9,48.7,35.6,100,92,71,30.30,29.86,12,1,12,0.00
2013-11-18,69.4,56.4,48.0,61.0,48.2,32.5,100,76,55,29.86,29.59,16,1,16,0.51
2013-11-19,53.8,41.0,30.7,36.8,27.1,19.5,63,57,52,30.30,29.71,19,5,19,0.00
2013-11-20,45.0,31.9,25.5,28.6,19.1,14.8,65,59,52,30.63,30.30,17,4,17,0.00
2013-11-21,55.8,36.8,23.7,38.4,25.7,13.9,73,64,52,30.66,30.39,14,1,14,0.00
2013-11-22,52.2,47.0,42.4,51.7,44.5,34.3,100,91,73,30.39,29.86,6,0,8,0.08
2013-11-23,53.2,41.1,28.8,48.4,30.1,16.1,100,66,52,29.98,29.86,22,4,22,0.00
2013-11-24,33.4,24.3,19.4,18.4,10.9,7.5,60,56,54,30.30,29.92,26,7,26,0.00
2013-11-25,39.2,26.1,15.4,23.6,14.3,5.9,66,61,53,30.45,30.30,12,1,12,0.00
2013-11-26,48.7,36.9,32.4,48.7,27.9,21.2,100,71,56,30.36,29.95,15,0,15,0.31
2013-11-27,60.6,49.8,36.3,60.6,48.3,27.3,100,95,70,29.92,29.30,21,5,25,1.57
2013-11-28,44.2,30.3,22.6,28.8,18.7,11.9,73,62,53,30.48,29.62,22,4,22,0.00
2013-11-29,45.0,29.0,22.1,29.0,18.2,12.2,74,64,54,30.74,30.48,13,1,13,0.00
2013-11-30,39.2,27.2,17.8,28.2,16.7,9.0,73,64,53,30.77,30.39,11,0,11,0.00